Terminal Aerodrome Forecast
Issued by NWS

Home | Current Version | Previous Version | Text Only | Print | Product List | Glossary Off
Versions: 1 2 3 4 5 6 7 8 9 10 11 12 13 14

000
FTUS43 KMPX 142300
TAFRNH
TAF
KRNH 142326Z 1500/1524 28004KT P6SM FEW050 BKN120
     FM150600 00000KT P6SM SCT050 OVC070
     FM151600 32008KT P6SM SKC=

USA.gov is the U.S. government's official web portal to all federal, state and local government web resources and services.